createdAt,value
2023-02-01T00:00:46.275Z,98566.13
2023-02-01T00:03:15.684Z,98566.28
2023-02-01T00:05:43.436Z,98571.25
2023-02-01T00:08:11.152Z,98569.41
2023-02-01T00:10:40.164Z,98559.50
2023-02-01T00:13:12.392Z,98563.22
2023-02-01T00:15:40.109Z,98556.94
2023-02-01T00:18:08.142Z,98560.44
2023-02-01T00:20:36.156Z,98566.28
2023-02-01T00:23:03.836Z,98565.72
2023-02-01T00:25:31.669Z,98566.91
2023-02-01T00:28:01.736Z,98564.50
2023-02-01T00:30:29.389Z,98561.75
2023-02-01T00:32:57.034Z,98555.75
2023-02-01T00:35:24.679Z,98557.88
2023-02-01T00:37:52.349Z,98547.06
2023-02-01T00:40:20.664Z,98554.56
2023-02-01T00:42:48.513Z,98550.75
2023-02-01T00:45:17.767Z,98558.84
2023-02-01T00:47:45.390Z,98555.56
2023-02-01T00:50:13.239Z,98563.16
2023-02-01T00:52:40.852Z,98553.97
2023-02-01T00:55:09.187Z,98553.38
2023-02-01T00:57:36.860Z,98557.69
2023-02-01T01:00:05.405Z,98547.97
2023-02-01T01:02:34.414Z,98543.66
2023-02-01T01:05:02.274Z,98546.38
2023-02-01T01:07:30.229Z,98545.78
2023-02-01T01:09:57.886Z,98539.88
2023-02-01T01:12:25.622Z,98539.56
2023-02-01T01:14:53.267Z,98550.09
2023-02-01T01:17:20.960Z,98540.38
2023-02-01T01:19:49.997Z,98546.59
2023-02-01T01:22:18.948Z,98544.19
2023-02-01T01:24:46.686Z,98544.47
2023-02-01T01:27:15.027Z,98545.34
2023-02-01T01:29:42.709Z,98547.53
2023-02-01T01:32:10.387Z,98545.53
2023-02-01T01:34:38.127Z,98546.09
2023-02-01T01:37:07.163Z,98555.69
2023-02-01T01:39:34.850Z,98541.88
2023-02-01T01:42:02.576Z,98546.19
2023-02-01T01:44:59.683Z,98546.69
2023-02-01T01:47:29.173Z,98535.31
2023-02-01T01:49:57.399Z,98545.53
2023-02-01T01:52:26.715Z,98541.16
2023-02-01T01:54:55.722Z,98531.13
2023-02-01T01:57:28.039Z,98535.63
2023-02-01T02:00:02.554Z,98531.72
2023-02-01T02:02:31.224Z,98529.94
2023-02-01T02:04:59.025Z,98532.34
2023-02-01T02:07:32.216Z,98535.56
2023-02-01T02:10:01.415Z,98531.75
2023-02-01T02:12:29.740Z,98529.06
2023-02-01T02:14:57.762Z,98531.16
2023-02-01T02:17:37.146Z,98524.16
2023-02-01T02:20:30.500Z,98523.56
2023-02-01T02:23:31.919Z,98520.94
2023-02-01T02:26:29.361Z,98511.16
2023-02-01T02:29:33.268Z,98508.75
2023-02-01T02:32:34.320Z,98508.75
2023-02-01T02:35:10.007Z,98501.94
2023-02-01T02:37:43.045Z,98500.34
2023-02-01T02:40:17.871Z,98507.34
2023-02-01T02:43:10.386Z,98505.53
2023-02-01T02:46:01.652Z,98502.22
2023-02-01T02:48:32.673Z,98507.25
2023-02-01T02:51:24.138Z,98506.28
2023-02-01T02:54:17.664Z,98515.47
2023-02-01T02:57:02.920Z,98510.88
2023-02-01T02:59:50.308Z,98502.97
2023-02-01T03:02:36.879Z,98497.25
2023-02-01T03:05:04.745Z,98495.88
2023-02-01T03:07:59.128Z,98492.88
2023-02-01T03:10:35.396Z,98474.69
2023-02-01T03:13:07.321Z,98480.91
2023-02-01T03:15:40.892Z,98475.28
2023-02-01T03:18:17.079Z,98474.78
2023-02-01T03:20:48.726Z,98468.94
2023-02-01T03:23:21.527Z,98458.75
2023-02-01T03:25:52.549Z,98466.94
2023-02-01T03:28:24.812Z,98470.66
2023-02-01T03:30:52.558Z,98474.75
2023-02-01T03:33:25.254Z,98485.16
2023-02-01T03:36:01.256Z,98480.25
2023-02-01T03:38:34.864Z,98465.66
2023-02-01T03:41:11.007Z,98458.25
2023-02-01T03:43:48.556Z,98472.06
2023-02-01T03:46:23.085Z,98455.28
2023-02-01T03:48:53.015Z,98469.50
2023-02-01T03:51:22.490Z,98470.91
2023-02-01T03:53:52.096Z,98455.66
2023-02-01T03:56:23.413Z,98451.88
2023-02-01T03:59:00.283Z,98460.47
2023-02-01T04:01:30.472Z,98455.59
2023-02-01T04:03:58.775Z,98448.06
2023-02-01T04:06:26.823Z,98440.97
2023-02-01T04:08:55.934Z,98443.69
2023-02-01T04:11:23.612Z,98440.69
2023-02-01T04:13:51.265Z,98439.28
2023-02-01T04:16:18.925Z,98426.88
2023-02-01T04:18:46.548Z,98434.47
2023-02-01T04:21:14.132Z,98431.69
2023-02-01T04:23:41.757Z,98435.47
2023-02-01T04:26:10.760Z,98432.69
2023-02-01T04:28:38.376Z,98439.50
2023-02-01T04:31:06.813Z,98427.88
2023-02-01T04:33:34.517Z,98431.09
2023-02-01T04:36:02.120Z,98430.47
2023-02-01T04:38:30.350Z,98427.97
2023-02-01T04:40:57.991Z,98441.84
2023-02-01T04:43:27.235Z,98423.34
2023-02-01T04:45:55.416Z,98438.41
2023-02-01T04:48:24.964Z,98435.63
2023-02-01T04:50:52.806Z,98434.09
2023-02-01T04:53:20.539Z,98427.19
2023-02-01T04:55:50.977Z,98427.78
2023-02-01T04:58:18.613Z,98433.75
2023-02-01T05:00:47.607Z,98426.16
2023-02-01T05:03:15.307Z,98426.75
2023-02-01T05:05:43.048Z,98439.16
2023-02-01T05:08:10.724Z,98426.16
2023-02-01T05:10:38.357Z,98440.75
2023-02-01T05:13:23.695Z,98435.94
2023-02-01T05:15:53.664Z,98438.72
2023-02-01T05:18:21.366Z,98427.34
2023-02-01T05:20:49.055Z,98432.75
2023-02-01T05:23:16.688Z,98431.22
2023-02-01T05:25:44.535Z,98433.94
2023-02-01T05:28:12.292Z,98438.31
2023-02-01T05:30:42.274Z,98442.50
2023-02-01T05:33:11.466Z,98448.44
2023-02-01T05:35:39.109Z,98454.72
2023-02-01T05:38:06.735Z,98451.13
2023-02-01T05:40:34.358Z,98456.53
2023-02-01T05:43:02.029Z,98460.31
2023-02-01T05:45:29.714Z,98467.94
2023-02-01T05:47:57.381Z,98466.91
2023-02-01T05:50:26.375Z,98455.72
2023-02-01T05:52:53.973Z,98466.81
2023-02-01T05:55:21.694Z,98457.78
2023-02-01T05:57:49.348Z,98458.72
2023-02-01T06:00:17.615Z,98457.28
2023-02-01T06:02:45.377Z,98453.66
2023-02-01T06:05:13.037Z,98443.44
2023-02-01T06:07:42.056Z,98449.56
2023-02-01T06:10:11.161Z,98441.50
2023-02-01T06:12:38.942Z,98426.28
2023-02-01T06:15:07.822Z,98426.09
2023-02-01T06:17:35.423Z,98420.09
2023-02-01T06:20:03.055Z,98423.41
2023-02-01T06:22:30.750Z,98429.31
2023-02-01T06:25:00.241Z,98424.91
2023-02-01T06:27:27.839Z,98427.31
2023-02-01T06:29:56.079Z,98425.94
2023-02-01T06:32:23.900Z,98423.75
2023-02-01T06:34:53.401Z,98423.19
2023-02-01T06:37:23.234Z,98414.28
2023-02-01T06:39:51.021Z,98424.78
2023-02-01T06:42:20.052Z,98431.19
2023-02-01T06:44:47.780Z,98429.59
2023-02-01T06:47:15.336Z,98422.50
2023-02-01T06:49:42.971Z,98421.41
2023-02-01T06:52:10.864Z,98419.81
2023-02-01T06:54:38.561Z,98404.63
2023-02-01T06:57:06.347Z,98409.00
2023-02-01T06:59:37.883Z,98413.31
2023-02-01T07:02:05.765Z,98410.63
2023-02-01T07:04:33.604Z,98414.41
2023-02-01T07:07:01.306Z,98420.81
2023-02-01T07:09:29.013Z,98419.22
2023-02-01T07:11:56.678Z,98418.13
2023-02-01T07:14:24.385Z,98427.25
2023-02-01T07:16:53.489Z,98418.63
2023-02-01T07:19:21.191Z,98419.66
2023-02-01T07:21:48.862Z,98428.28
2023-02-01T07:24:16.653Z,98426.56
2023-02-01T07:26:44.411Z,98419.28
2023-02-01T07:29:12.053Z,98424.88
2023-02-01T07:31:39.802Z,98424.31
2023-02-01T07:34:08.875Z,98413.72
2023-02-01T07:36:37.251Z,98423.63
2023-02-01T07:39:04.988Z,98425.16
2023-02-01T07:41:32.717Z,98430.56
2023-02-01T07:44:00.375Z,98432.66
2023-02-01T07:46:28.185Z,98418.56
2023-02-01T07:48:55.873Z,98412.59
2023-02-01T07:51:24.854Z,98413.56
2023-02-01T07:53:53.726Z,98414.09
2023-02-01T07:56:23.901Z,98412.63
2023-02-01T07:58:53.178Z,98419.03
2023-02-01T08:01:21.868Z,98411.63
2023-02-01T08:03:50.479Z,98400.22
2023-02-01T08:06:18.238Z,98398.03
2023-02-01T08:08:47.758Z,98403.84
2023-02-01T08:11:16.221Z,98390.22
2023-02-01T08:13:43.993Z,98396.13
2023-02-01T08:16:14.310Z,98400.34
2023-02-01T08:18:42.625Z,98395.44
2023-02-01T08:21:12.578Z,98391.66
2023-02-01T08:23:42.097Z,98384.22
2023-02-01T08:26:13.512Z,98374.16
2023-02-01T08:28:42.710Z,98390.66
2023-02-01T08:31:12.590Z,98392.53
2023-02-01T08:33:40.245Z,98403.59
2023-02-01T08:36:09.900Z,98415.44
2023-02-01T08:38:38.363Z,98427.47
2023-02-01T08:41:07.852Z,98422.66
2023-02-01T08:43:37.423Z,98428.38
2023-02-01T08:46:06.089Z,98432.88
2023-02-01T08:48:33.993Z,98421.66
2023-02-01T08:51:03.749Z,98439.09
2023-02-01T08:53:31.519Z,98438.69
2023-02-01T08:55:59.310Z,98436.47
2023-02-01T08:58:27.058Z,98430.06
2023-02-01T09:00:56.101Z,98434.97
2023-02-01T09:03:24.002Z,98432.06
2023-02-01T09:05:54.076Z,98429.66
2023-02-01T09:08:22.319Z,98429.66
2023-02-01T09:10:50.003Z,98437.69
2023-02-01T09:13:17.749Z,98444.69
2023-02-01T09:15:45.462Z,98425.88
2023-02-01T09:18:14.531Z,98441.91
2023-02-01T09:20:42.157Z,98444.59
2023-02-01T09:23:09.812Z,98469.91
2023-02-01T09:25:39.085Z,98469.41
2023-02-01T09:28:07.229Z,98466.91
2023-02-01T09:30:35.660Z,98473.91
2023-02-01T09:33:03.467Z,98496.13
2023-02-01T09:35:32.631Z,98496.78
2023-02-01T09:38:00.281Z,98506.16
2023-02-01T09:40:28.407Z,98511.44
2023-02-01T09:43:10.905Z,98491.72
2023-02-01T09:45:47.394Z,98498.50
2023-02-01T09:48:18.929Z,98506.16
2023-02-01T09:50:52.528Z,98522.13
2023-02-01T09:53:25.414Z,98524.69
2023-02-01T09:55:57.387Z,98536.94
2023-02-01T09:58:33.116Z,98527.88
2023-02-01T10:01:04.011Z,98534.13
2023-02-01T10:03:34.808Z,98538.78
2023-02-01T10:06:31.761Z,98540.81
2023-02-01T10:09:49.939Z,98540.59
2023-02-01T10:12:55.771Z,98543.00
2023-02-01T10:15:32.798Z,98540.00
2023-02-01T10:18:18.325Z,98537.19
2023-02-01T10:21:07.171Z,98532.00
2023-02-01T10:24:16.784Z,98527.81
2023-02-01T10:26:49.318Z,98524.41
2023-02-01T10:29:20.674Z,98512.63
2023-02-01T10:31:48.807Z,98507.38
2023-02-01T10:34:22.999Z,98513.00
2023-02-01T10:36:57.617Z,98512.41
2023-02-01T10:39:26.787Z,98504.72
2023-02-01T10:41:56.116Z,98512.19
2023-02-01T10:44:27.191Z,98498.38
2023-02-01T10:46:54.882Z,98522.72
2023-02-01T10:49:28.507Z,98507.09
2023-02-01T10:52:00.672Z,98519.34
2023-02-01T10:54:39.207Z,98518.41
2023-02-01T10:57:10.196Z,98516.22
2023-02-01T10:59:39.314Z,98518.41
2023-02-01T11:02:18.392Z,98512.41
2023-02-01T11:04:46.105Z,98507.47
2023-02-01T11:07:21.274Z,98505.38
2023-02-01T11:09:55.800Z,98507.38
2023-02-01T11:12:29.205Z,98500.78
2023-02-01T11:15:02.334Z,98490.19
2023-02-01T11:17:35.732Z,98492.59
2023-02-01T11:20:07.807Z,98487.56
2023-02-01T11:22:35.575Z,98481.97
2023-02-01T11:25:11.627Z,98482.34
2023-02-01T11:27:49.528Z,98449.28
2023-02-01T11:30:33.571Z,98460.50
2023-02-01T11:33:04.057Z,98465.28
2023-02-01T11:35:34.153Z,98464.31
2023-02-01T11:38:02.589Z,98464.50
2023-02-01T11:40:37.945Z,98466.91
2023-02-01T11:43:12.022Z,98471.09
2023-02-01T11:45:39.705Z,98457.47
2023-02-01T11:48:15.074Z,98471.38
2023-02-01T11:50:56.732Z,98459.75
2023-02-01T11:53:40.930Z,98456.25
2023-02-01T11:56:21.857Z,98454.63
2023-02-01T11:59:07.322Z,98452.06
2023-02-01T12:02:01.680Z,98448.56
2023-02-01T12:04:58.489Z,98452.88
2023-02-01T12:07:36.781Z,98456.06
2023-02-01T12:10:21.681Z,98449.34
2023-02-01T12:13:01.137Z,98452.47
2023-02-01T12:15:48.286Z,98445.41
2023-02-01T12:18:47.869Z,98452.44
2023-02-01T12:21:36.626Z,98451.06
2023-02-01T12:24:30.248Z,98442.53
2023-02-01T12:27:10.502Z,98435.53
2023-02-01T12:29:56.805Z,98430.13
2023-02-01T12:32:38.739Z,98423.19
2023-02-01T12:35:47.255Z,98423.75
2023-02-01T12:38:29.576Z,98399.91
2023-02-01T12:41:17.209Z,98409.50
2023-02-01T12:43:49.079Z,98414.13
2023-02-01T12:46:23.281Z,98408.91
2023-02-01T12:48:58.061Z,98404.09
2023-02-01T12:51:31.553Z,98395.66
2023-02-01T12:54:04.631Z,98403.50
2023-02-01T12:56:37.294Z,98403.50
2023-02-01T12:59:10.669Z,98394.25
2023-02-01T13:01:46.326Z,98402.06
2023-02-01T13:04:21.315Z,98397.44
2023-02-01T13:06:53.896Z,98393.63
2023-02-01T13:09:27.555Z,98400.94
2023-02-01T13:11:59.677Z,98395.88
2023-02-01T13:14:34.844Z,98393.88
2023-02-01T13:17:07.523Z,98392.69
2023-02-01T13:19:44.790Z,98386.31
2023-02-01T13:22:18.064Z,98393.13
2023-02-01T13:24:49.574Z,98393.53
2023-02-01T13:27:19.007Z,98390.94
2023-02-01T13:29:55.571Z,98398.88
2023-02-01T13:33:50.854Z,98400.47
2023-02-01T13:35:44.897Z,98397.16
2023-02-01T13:38:41.784Z,98388.31
2023-02-01T13:41:27.750Z,98394.72
2023-02-01T13:43:59.523Z,98373.28
2023-02-01T13:46:28.371Z,98394.47
2023-02-01T13:49:01.150Z,98387.06
2023-02-01T13:51:39.585Z,98380.84
2023-02-01T13:54:07.877Z,98370.50
2023-02-01T13:56:43.795Z,98373.72
2023-02-01T14:00:00.177Z,98373.56
2023-02-01T14:02:53.153Z,98384.03
2023-02-01T14:06:01.297Z,98378.63
2023-02-01T14:08:44.558Z,98389.31
2023-02-01T14:11:36.517Z,98374.81
2023-02-01T14:14:47.181Z,98378.03
2023-02-01T14:17:42.115Z,98380.72
2023-02-01T14:20:54.254Z,98366.19
2023-02-01T14:23:25.837Z,98377.03
2023-02-01T14:26:10.273Z,98380.22
2023-02-01T14:28:42.788Z,98377.31
2023-02-01T14:31:41.876Z,98375.41
2023-02-01T14:34:23.714Z,98384.44
2023-02-01T14:36:57.431Z,98375.03
2023-02-01T14:39:53.718Z,98382.66
2023-02-01T14:42:28.711Z,98369.63
2023-02-01T14:44:59.783Z,98370.13
2023-02-01T14:47:33.864Z,98367.41
2023-02-01T14:50:14.443Z,98379.16
2023-02-01T14:52:46.447Z,98363.25
2023-02-01T14:55:19.746Z,98364.47
2023-02-01T14:57:52.201Z,98361.84
2023-02-01T15:00:23.889Z,98368.88
2023-02-01T15:02:54.851Z,98375.88
2023-02-01T15:05:31.925Z,98374.28
2023-02-01T15:08:05.246Z,98372.88
2023-02-01T15:10:42.485Z,98371.47
2023-02-01T15:13:21.123Z,98354.25
2023-02-01T15:16:02.416Z,98360.88
2023-02-01T15:18:30.146Z,98355.84
2023-02-01T15:21:09.741Z,98351.66
2023-02-01T15:23:51.971Z,98350.03
2023-02-01T15:26:33.089Z,98344.81
2023-02-01T15:29:00.841Z,98347.84
2023-02-01T15:31:37.151Z,98348.03
2023-02-01T15:34:05.402Z,98337.19
2023-02-01T15:36:33.306Z,98341.81
2023-02-01T15:39:32.493Z,98332.59
2023-02-01T15:42:12.189Z,98344.22
2023-02-01T15:44:42.904Z,98337.41
2023-02-01T15:47:17.978Z,98342.81
2023-02-01T15:49:49.091Z,98333.59
2023-02-01T15:52:25.748Z,98340.59
2023-02-01T15:54:56.595Z,98345.00
2023-02-01T15:57:31.675Z,98327.97
2023-02-01T16:00:02.224Z,98341.81
2023-02-01T16:02:36.313Z,98323.88
2023-02-01T16:05:05.409Z,98335.78
2023-02-01T16:07:34.952Z,98336.41
2023-02-01T16:10:18.834Z,98346.13
2023-02-01T16:12:49.270Z,98341.81
2023-02-01T16:15:17.115Z,98341.69
2023-02-01T16:17:46.724Z,98347.63
2023-02-01T16:20:14.965Z,98347.63
2023-02-01T16:22:42.683Z,98339.59
2023-02-01T16:25:10.650Z,98338.19
2023-02-01T16:27:38.362Z,98335.19
2023-02-01T16:30:10.744Z,98328.78
2023-02-01T16:32:40.190Z,98331.00
2023-02-01T16:35:19.964Z,98310.94
2023-02-01T16:37:47.804Z,98335.78
2023-02-01T16:40:16.333Z,98348.84
2023-02-01T16:42:44.085Z,98357.44
2023-02-01T16:45:13.181Z,98356.94
2023-02-01T16:47:47.315Z,98365.25
2023-02-01T16:50:23.388Z,98345.22
2023-02-01T16:52:51.757Z,98347.63
2023-02-01T16:55:22.743Z,98339.00
2023-02-01T16:57:50.746Z,98343.81
2023-02-01T17:00:25.655Z,98345.22
2023-02-01T17:02:54.253Z,98322.75
2023-02-01T17:05:23.978Z,98324.16
2023-02-01T17:07:53.135Z,98328.78
2023-02-01T17:10:34.321Z,98326.56
2023-02-01T17:13:02.569Z,98310.34
2023-02-01T17:15:37.268Z,98295.69
2023-02-01T17:18:05.388Z,98310.34
2023-02-01T17:20:33.891Z,98333.59
2023-02-01T17:23:02.354Z,98339.00
2023-02-01T17:25:31.763Z,98339.00
2023-02-01T17:27:59.788Z,98343.81
2023-02-01T17:30:27.625Z,98333.47
2023-02-01T17:32:57.151Z,98351.28
2023-02-01T17:35:28.564Z,98345.41
2023-02-01T17:37:56.539Z,98323.41
2023-02-01T17:40:24.583Z,98347.63
2023-02-01T17:42:52.246Z,98332.78
2023-02-01T17:45:27.425Z,98339.19
2023-02-01T17:47:56.455Z,98347.63
2023-02-01T17:50:28.232Z,98340.00
2023-02-01T17:52:56.266Z,98355.13
2023-02-01T17:55:26.683Z,98335.53
2023-02-01T17:57:54.532Z,98338.38
2023-02-01T18:00:23.135Z,98310.53
2023-02-01T18:02:50.771Z,98339.00
2023-02-01T18:05:25.029Z,98339.19
2023-02-01T18:07:52.874Z,98342.69
2023-02-01T18:10:20.811Z,98341.59
2023-02-01T18:12:48.680Z,98328.53
2023-02-01T18:15:19.154Z,98330.75
2023-02-01T18:17:47.051Z,98316.09
2023-02-01T18:20:16.890Z,98325.41
2023-02-01T18:22:48.626Z,98319.19
2023-02-01T18:25:20.522Z,98313.28
2023-02-01T18:27:48.841Z,98315.50
2023-02-01T18:30:17.078Z,98311.69
2023-02-01T18:32:45.919Z,98310.06
2023-02-01T18:35:18.814Z,98299.25
2023-02-01T18:37:48.631Z,98310.88
2023-02-01T18:40:18.947Z,98313.88
2023-02-01T18:42:46.836Z,98314.88
2023-02-01T18:45:29.597Z,98310.47
2023-02-01T18:47:57.674Z,98309.69
2023-02-01T18:50:25.923Z,98324.22
2023-02-01T18:53:00.022Z,98328.03
2023-02-01T18:55:29.225Z,98310.81
2023-02-01T18:57:56.922Z,98321.97
2023-02-01T19:00:25.575Z,98315.09
2023-02-01T19:02:53.330Z,98312.41
2023-02-01T19:05:21.870Z,98301.56
2023-02-01T19:07:49.599Z,98307.00
2023-02-01T19:10:22.107Z,98310.81
2023-02-01T19:12:50.754Z,98312.66
2023-02-01T19:15:19.242Z,98313.41
2023-02-01T19:17:50.042Z,98311.31
2023-02-01T19:20:19.956Z,98298.91
2023-02-01T19:22:48.138Z,98316.34
2023-02-01T19:25:20.186Z,98313.94
2023-02-01T19:27:49.687Z,98320.34
2023-02-01T19:30:18.224Z,98314.66
2023-02-01T19:32:46.671Z,98298.41
2023-02-01T19:35:16.946Z,98310.34
2023-02-01T19:37:44.782Z,98316.84
2023-02-01T19:40:15.592Z,98292.50
2023-02-01T19:42:43.381Z,98319.75
2023-02-01T19:45:12.868Z,98302.91
2023-02-01T19:47:40.761Z,98311.69
2023-02-01T19:50:11.708Z,98312.66
2023-02-01T19:52:39.682Z,98308.25
2023-02-01T19:55:07.799Z,98303.31
2023-02-01T19:57:36.408Z,98319.06
2023-02-01T20:00:05.311Z,98319.88
2023-02-01T20:02:33.569Z,98307.25
2023-02-01T20:05:01.331Z,98315.06
2023-02-01T20:07:29.003Z,98315.88
2023-02-01T20:09:56.708Z,98308.06
2023-02-01T20:12:24.406Z,98328.41
2023-02-01T20:14:52.048Z,98328.91
2023-02-01T20:17:19.737Z,98324.91
2023-02-01T20:19:48.784Z,98313.28
2023-02-01T20:22:16.871Z,98319.94
2023-02-01T20:24:44.653Z,98317.34
2023-02-01T20:27:13.438Z,98315.75
2023-02-01T20:29:42.440Z,98316.34
2023-02-01T20:32:10.496Z,98316.34
2023-02-01T20:34:38.269Z,98313.16
2023-02-01T20:37:07.872Z,98329.38
2023-02-01T20:39:35.913Z,98297.72
2023-02-01T20:42:05.227Z,98311.56
2023-02-01T20:44:35.507Z,98300.72
2023-02-01T20:47:05.583Z,98316.97
2023-02-01T20:49:34.781Z,98305.53
2023-02-01T20:52:02.577Z,98317.16
2023-02-01T20:54:31.867Z,98315.13
2023-02-01T20:56:59.704Z,98302.09
2023-02-01T20:59:27.800Z,98309.72
2023-02-01T21:01:59.253Z,98290.47
2023-02-01T21:04:29.197Z,98304.47
2023-02-01T21:06:57.933Z,98311.31
2023-02-01T21:09:25.749Z,98309.72
2023-02-01T21:11:55.447Z,98311.94
2023-02-01T21:14:23.721Z,98300.50
2023-02-01T21:16:52.847Z,98314.75
2023-02-01T21:19:22.365Z,98320.16
2023-02-01T21:21:50.110Z,98324.59
2023-02-01T21:24:18.872Z,98312.16
2023-02-01T21:26:46.990Z,98330.84
2023-02-01T21:29:17.217Z,98335.25
2023-02-01T21:31:44.983Z,98334.66
2023-02-01T21:34:12.680Z,98341.31
2023-02-01T21:36:40.368Z,98353.22
2023-02-01T21:39:10.892Z,98347.94
2023-02-01T21:41:57.118Z,98351.63
2023-02-01T21:44:26.177Z,98343.84
2023-02-01T21:46:55.620Z,98347.16
2023-02-01T21:49:25.507Z,98350.97
2023-02-01T21:51:53.609Z,98349.38
2023-02-01T21:54:21.467Z,98352.56
2023-02-01T21:56:49.158Z,98340.53
2023-02-01T21:59:16.886Z,98350.22
2023-02-01T22:01:46.377Z,98350.38
2023-02-01T22:04:14.302Z,98343.84
2023-02-01T22:06:45.838Z,98347.78
2023-02-01T22:09:17.874Z,98333.34
2023-02-01T22:11:45.738Z,98335.44
2023-02-01T22:14:14.009Z,98333.75
2023-02-01T22:16:42.058Z,98331.53
2023-02-01T22:19:12.376Z,98337.94
2023-02-01T22:21:42.078Z,98335.13
2023-02-01T22:24:11.481Z,98332.31
2023-02-01T22:26:39.932Z,98318.69
2023-02-01T22:29:08.631Z,98326.66
2023-02-01T22:31:36.754Z,98324.84
2023-02-01T22:34:04.391Z,98325.22
2023-02-01T22:36:33.397Z,98325.69
2023-02-01T22:39:01.091Z,98310.94
2023-02-01T22:41:28.795Z,98310.94
2023-02-01T22:43:56.550Z,98300.31
2023-02-01T22:46:26.286Z,98312.44
2023-02-01T22:48:54.750Z,98302.09
2023-02-01T22:51:24.903Z,98314.53
2023-02-01T22:53:56.876Z,98319.31
2023-02-01T22:56:26.401Z,98305.47
2023-02-01T22:58:58.528Z,98309.47
2023-02-01T23:01:26.733Z,98305.16
2023-02-01T23:03:58.254Z,98311.06
2023-02-01T23:06:26.686Z,98315.38
2023-02-01T23:08:57.785Z,98316.66
2023-02-01T23:11:26.754Z,98315.88
2023-02-01T23:13:55.033Z,98321.59
2023-02-01T23:16:23.115Z,98314.28
2023-02-01T23:18:51.066Z,98300.63
2023-02-01T23:21:21.147Z,98303.13
2023-02-01T23:23:49.660Z,98310.81
2023-02-01T23:26:19.398Z,98299.97
2023-02-01T23:28:47.121Z,98301.09
2023-02-01T23:31:15.542Z,98295.19
2023-02-01T23:33:46.103Z,98289.00
2023-02-01T23:36:16.248Z,98310.03
2023-02-01T23:38:44.303Z,98297.75
2023-02-01T23:41:13.332Z,98313.38
2023-02-01T23:44:01.174Z,98308.47
2023-02-01T23:46:32.024Z,98308.59
2023-02-01T23:49:00.449Z,98310.81
2023-02-01T23:51:28.330Z,98313.03
2023-02-01T23:53:56.959Z,98319.06
2023-02-01T23:56:26.430Z,98318.47
2023-02-01T23:58:56.787Z,98317.81
